Time;durP1;ratioP1;P1;durP2;ratioP2;P2;SDS_P1;SDS_P2;PMS_P1;PMS_P2;Temp;Humidity;BMP_temperature;BMP_pressure;BME280_temperature;BME280_humidity;BME280_pressure;Samples;Min_cycle;Max_cycle;Signal;HPM_P1;HPM_P2
2021/01/22 00:01:04;;;;;;;7.28;4.78;;;;;;;9.18;64.59;98387.06;4927960;29;20632;-83
2021/01/22 00:03:29;;;;;;;6.68;6.00;;;;;;;9.09;64.72;98385.81;4926609;29;20950;-83
2021/01/22 00:05:55;;;;;;;7.50;6.32;;;;;;;9.30;64.30;98389.69;4929490;29;20485;-84
2021/01/22 00:08:20;;;;;;;9.88;6.35;;;;;;;9.18;64.37;98397.91;4929182;29;20039;-83
2021/01/22 00:10:46;;;;;;;6.00;4.90;;;;;;;9.07;64.41;98407.75;4925685;29;20046;-83
2021/01/22 00:13:11;;;;;;;8.05;7.30;;;;;;;9.02;64.24;98398.72;4926023;29;20036;-81
2021/01/22 00:15:37;;;;;;;10.93;4.65;;;;;;;9.15;63.92;98403.81;4927247;29;20450;-82
2021/01/22 00:18:02;;;;;;;9.23;8.40;;;;;;;9.17;63.73;98401.66;4924437;29;20039;-83
2021/01/22 00:20:28;;;;;;;13.32;7.93;;;;;;;9.11;63.66;98405.38;4926937;29;20034;-82
2021/01/22 00:22:53;;;;;;;9.00;8.30;;;;;;;9.09;63.63;98427.31;4925501;29;20098;-83
2021/01/22 00:25:18;;;;;;;7.40;6.38;;;;;;;9.08;63.96;98432.97;4928238;29;20043;-83
2021/01/22 00:27:44;;;;;;;5.45;4.50;;;;;;;9.20;63.59;98422.88;4925223;29;20039;-83
2021/01/22 00:30:10;;;;;;;5.75;5.15;;;;;;;9.21;63.31;98421.81;4926724;29;20107;-83
2021/01/22 00:32:36;;;;;;;9.10;6.22;;;;;;;9.21;63.39;98421.81;4920995;29;20436;-83
2021/01/22 00:35:02;;;;;;;6.35;5.95;;;;;;;9.13;63.59;98423.03;4927011;29;20035;-83
2021/01/22 00:37:28;;;;;;;5.97;5.20;;;;;;;9.18;63.56;98432.34;4926282;29;20035;-83
2021/01/22 00:39:53;;;;;;;8.00;4.00;;;;;;;9.16;63.42;98429.88;4929490;29;20114;-83
2021/01/22 00:42:18;;;;;;;7.55;6.68;;;;;;;9.14;63.49;98429.28;4923947;29;20035;-83
2021/01/22 00:44:44;;;;;;;5.85;5.35;;;;;;;9.12;63.45;98431.44;4927049;29;20039;-83
2021/01/22 00:47:09;;;;;;;11.00;10.05;;;;;;;9.20;63.62;98435.63;4942528;28;20047;-84
2021/01/22 00:49:35;;;;;;;10.15;5.82;;;;;;;9.12;63.81;98443.09;4927351;29;20042;-83
2021/01/22 00:52:00;;;;;;;7.28;5.20;;;;;;;9.21;63.39;98440.78;4926869;29;20060;-84
2021/01/22 00:54:25;;;;;;;11.43;10.48;;;;;;;9.29;63.29;98445.78;4924864;29;20068;-83
2021/01/22 00:56:51;;;;;;;10.75;5.82;;;;;;;9.11;63.78;98432.47;4911210;29;20043;-83
2021/01/22 00:59:16;;;;;;;8.27;7.55;;;;;;;8.69;64.88;98443.72;4927789;29;20070;-85
2021/01/22 01:01:41;;;;;;;6.55;6.07;;;;;;;8.72;64.90;98426.97;4908139;29;20032;-84
2021/01/22 01:04:07;;;;;;;6.25;4.72;;;;;;;8.91;64.54;98430.25;4939562;29;20043;-82
2021/01/22 01:06:32;;;;;;;4.47;3.75;;;;;;;8.84;64.79;98437.75;4923148;29;20559;-85
2021/01/22 01:08:58;;;;;;;6.65;6.15;;;;;;;8.95;64.46;98439.56;4926923;29;20541;-82
2021/01/22 01:11:23;;;;;;;4.65;4.10;;;;;;;8.95;63.90;98421.38;4928388;29;20040;-82
2021/01/22 01:13:49;;;;;;;4.43;4.00;;;;;;;8.95;63.92;98434.94;4925382;29;20032;-84
2021/01/22 01:16:19;;;;;;;5.35;2.78;;;;;;;9.03;63.45;98432.91;4924092;29;20039;-83
2021/01/22 01:18:45;;;;;;;15.73;4.43;;;;;;;9.21;62.92;98421.81;4915577;29;20186;-83
2021/01/22 01:21:12;;;;;;;7.25;4.82;;;;;;;9.15;63.28;98447.19;4943775;28;20403;-84
2021/01/22 01:23:37;;;;;;;7.03;6.10;;;;;;;9.22;63.63;98457.88;4925367;29;20460;-83
2021/01/22 01:26:03;;;;;;;7.25;5.93;;;;;;;9.31;63.55;98456.41;4928301;29;20040;-83
2021/01/22 01:28:28;;;;;;;7.28;4.78;;;;;;;9.16;63.78;98435.28;4928915;29;20503;-83
2021/01/22 01:30:54;;;;;;;8.27;6.25;;;;;;;9.30;63.36;98447.44;4930200;29;20502;-83
2021/01/22 01:33:19;;;;;;;10.05;4.78;;;;;;;9.25;63.84;98450.09;4928486;29;20035;-83
2021/01/22 01:35:45;;;;;;;11.27;5.22;;;;;;;9.46;63.43;98463.97;4928750;29;20170;-83
2021/01/22 01:38:10;;;;;;;13.50;7.30;;;;;;;9.46;63.60;98463.97;4925433;29;20120;-83
2021/01/22 01:40:36;;;;;;;12.63;9.30;;;;;;;9.21;64.45;98473.34;4928124;29;20036;-83
2021/01/22 01:43:01;;;;;;;10.63;7.55;;;;;;;9.49;63.98;98475.13;4930678;29;20046;-83
2021/01/22 01:45:28;;;;;;;12.07;9.20;;;;;;;9.09;65.02;98467.16;4930343;29;20513;-83
2021/01/22 01:47:53;;;;;;;22.90;10.98;;;;;;;9.46;64.55;98474.81;4943509;29;20047;-83
2021/01/22 01:50:19;;;;;;;15.40;9.52;;;;;;;9.63;64.01;98477.50;4926068;29;20087;-83
2021/01/22 01:52:45;;;;;;;16.60;7.88;;;;;;;9.41;64.85;98478.25;4930855;29;20032;-84
2021/01/22 01:55:10;;;;;;;17.27;8.88;;;;;;;9.62;64.48;98482.13;4921493;29;20504;-84
2021/01/22 01:57:36;;;;;;;15.52;8.57;;;;;;;9.76;64.02;98492.59;4923795;29;20597;-82
2021/01/22 02:00:04;;;;;;;20.40;7.32;;;;;;;9.73;63.83;98490.38;4925405;29;20737;-83
2021/01/22 02:02:30;;;;;;;14.38;6.78;;;;;;;9.79;63.59;98486.69;4929162;29;20038;-83
2021/01/22 02:04:56;;;;;;;15.70;4.90;;;;;;;9.79;63.72;98484.81;4924539;29;20047;-81
2021/01/22 02:07:22;;;;;;;11.55;4.63;;;;;;;9.78;63.66;98494.00;4928296;29;20028;-82
2021/01/22 02:09:47;;;;;;;15.45;6.75;;;;;;;9.67;64.27;98497.66;4925584;29;20036;-82
2021/01/22 02:12:13;;;;;;;19.65;8.55;;;;;;;9.73;64.17;98503.97;4944212;29;20092;-82
2021/01/22 02:14:39;;;;;;;16.95;7.75;;;;;;;9.71;64.38;98503.41;4924263;29;20039;-82
2021/01/22 02:17:04;;;;;;;15.55;6.65;;;;;;;9.64;64.33;98506.28;4929617;29;20055;-82
2021/01/22 02:20:11;;;;;;;12.48;4.80;;;;;;;9.75;63.65;98512.69;4924263;29;20500;-81
2021/01/22 02:22:38;;;;;;;12.63;7.03;;;;;;;9.64;63.79;98509.81;4906977;29;20060;-82
2021/01/22 02:25:07;;;;;;;15.48;8.00;;;;;;;9.78;63.42;98515.72;4924360;29;20051;-81
2021/01/22 02:27:35;;;;;;;12.48;7.38;;;;;;;9.45;63.83;98511.13;4924655;29;20040;-82
2021/01/22 02:30:05;;;;;;;12.63;6.65;;;;;;;9.64;63.42;98519.88;4928545;29;20039;-81
2021/01/22 02:32:32;;;;;;;16.92;7.00;;;;;;;9.66;63.18;98523.94;4923757;29;20044;-82
2021/01/22 02:35:00;;;;;;;10.25;5.72;;;;;;;9.57;63.13;98530.06;4927727;29;20032;-81
2021/01/22 02:37:26;;;;;;;7.10;4.30;;;;;;;9.56;63.13;98534.66;4928968;29;20035;-81
2021/01/22 02:39:54;;;;;;;16.90;10.10;;;;;;;9.51;62.71;98540.00;4926798;29;20076;-81
2021/01/22 02:42:23;;;;;;;11.27;6.18;;;;;;;9.45;62.71;98549.97;4927952;29;20039;-83
2021/01/22 02:44:50;;;;;;;16.50;8.50;;;;;;;9.32;62.88;98556.50;4926821;29;20464;-82
2021/01/22 02:47:17;;;;;;;13.57;8.13;;;;;;;9.35;62.47;98562.53;4926689;29;20036;-83
2021/01/22 02:49:42;;;;;;;10.85;6.10;;;;;;;9.47;62.46;98557.84;4925020;29;20036;-82
2021/01/22 02:52:08;;;;;;;16.45;7.93;;;;;;;9.48;62.27;98570.31;4927328;29;20042;-82
2021/01/22 02:54:34;;;;;;;14.43;6.72;;;;;;;9.37;62.64;98568.53;4925794;29;20448;-82
2021/01/22 02:57:13;;;;;;;10.80;7.32;;;;;;;9.28;62.27;98576.22;4925299;29;20035;-83
2021/01/22 02:59:50;;;;;;;12.50;9.45;;;;;;;9.35;62.30;98571.47;4923257;29;20028;-82
2021/01/22 03:02:37;;;;;;;10.85;4.78;;;;;;;9.32;61.87;98583.63;4927885;29;20483;-83
2021/01/22 03:05:05;;;;;;;16.42;7.20;;;;;;;9.45;61.72;98592.53;4939578;29;20399;-81
2021/01/22 03:07:42;;;;;;;18.17;4.85;;;;;;;9.17;62.17;98591.50;4926500;29;20051;-82
2021/01/22 03:10:08;;;;;;;18.05;6.03;;;;;;;9.38;61.61;98591.88;4926717;29;20040;-82
2021/01/22 03:12:34;;;;;;;14.27;4.70;;;;;;;9.35;61.80;98600.50;4927390;29;20066;-82
2021/01/22 03:15:00;;;;;;;16.83;6.30;;;;;;;9.28;61.47;98595.22;4922564;29;20087;-81
2021/01/22 03:17:25;;;;;;;16.45;8.15;;;;;;;9.47;61.26;98609.41;4926364;29;20024;-82
2021/01/22 03:19:51;;;;;;;16.17;6.75;;;;;;;9.45;60.83;98597.94;4923124;29;20040;-81
2021/01/22 03:22:17;;;;;;;11.30;6.10;;;;;;;9.30;61.50;98609.38;4926779;29;20051;-81
2021/01/22 03:24:43;;;;;;;14.55;8.00;;;;;;;9.38;60.70;98608.16;4924930;29;20034;-82
2021/01/22 03:27:09;;;;;;;19.10;8.73;;;;;;;9.11;61.55;98620.41;4926126;29;20143;-83
2021/01/22 03:29:35;;;;;;;19.20;8.48;;;;;;;9.34;61.10;98623.25;4924342;29;20024;-81
2021/01/22 03:32:01;;;;;;;19.00;7.00;;;;;;;9.37;60.71;98617.34;4925041;29;20063;-82
2021/01/22 03:34:27;;;;;;;16.95;6.57;;;;;;;9.07;62.08;98619.25;4925324;29;20553;-83
2021/01/22 03:36:54;;;;;;;10.15;7.35;;;;;;;9.21;61.41;98616.25;4928232;29;20043;-82
2021/01/22 03:39:21;;;;;;;19.85;7.10;;;;;;;9.02;61.83;98621.03;4926202;29;20120;-82
2021/01/22 03:41:46;;;;;;;15.98;9.05;;;;;;;9.04;61.25;98619.72;4923678;29;20455;-82
2021/01/22 03:44:12;;;;;;;16.88;6.05;;;;;;;8.86;61.89;98622.63;4925941;29;20098;-82
2021/01/22 03:46:37;;;;;;;11.02;5.57;;;;;;;9.09;61.39;98632.56;4920963;29;20846;-83
2021/01/22 03:49:02;;;;;;;14.77;6.47;;;;;;;8.94;61.37;98631.19;4926416;29;20039;-81
2021/01/22 03:51:29;;;;;;;17.27;7.18;;;;;;;9.10;60.80;98631.50;4927628;29;20403;-82
2021/01/22 03:53:54;;;;;;;9.95;7.15;;;;;;;8.93;61.35;98632.25;4925489;29;20410;-82
2021/01/22 03:56:20;;;;;;;14.43;8.70;;;;;;;8.90;61.74;98638.16;4927014;29;20096;-81
2021/01/22 03:58:45;;;;;;;13.90;5.38;;;;;;;9.01;61.57;98643.78;4926750;29;20028;-82
2021/01/22 04:01:10;;;;;;;13.18;5.38;;;;;;;8.94;62.14;98636.63;4921591;29;20032;-82
2021/01/22 04:03:36;;;;;;;17.98;5.50;;;;;;;9.11;61.72;98647.53;4925412;29;20493;-82
2021/01/22 04:06:01;;;;;;;16.40;5.57;;;;;;;9.07;61.47;98650.97;4908851;29;20032;-82
2021/01/22 04:08:27;;;;;;;10.88;4.53;;;;;;;9.17;61.78;98655.75;4939178;29;20036;-82
2021/01/22 04:10:52;;;;;;;14.63;7.05;;;;;;;9.13;62.19;98672.50;4927481;29;20614;-84
2021/01/22 04:13:18;;;;;;;18.77;7.47;;;;;;;9.20;61.66;98671.53;4923718;29;20126;-83
2021/01/22 04:15:43;;;;;;;19.58;5.68;;;;;;;9.22;61.83;98674.81;4925697;29;20123;-82
2021/01/22 04:18:09;;;;;;;16.65;6.13;;;;;;;9.15;61.79;98680.41;4927428;29;20036;-84
2021/01/22 04:20:34;;;;;;;14.55;6.15;;;;;;;9.28;61.42;98696.41;4944590;28;20040;-83
2021/01/22 04:23:00;;;;;;;20.45;5.38;;;;;;;9.42;61.54;98686.09;4930883;29;20040;-82
2021/01/22 04:25:25;;;;;;;13.60;4.70;;;;;;;9.19;62.06;98702.44;4929377;29;20043;-83
2021/01/22 04:27:51;;;;;;;12.02;5.47;;;;;;;9.43;61.55;98701.28;4943845;29;20100;-82
2021/01/22 04:30:17;;;;;;;17.48;6.40;;;;;;;9.25;61.40;98696.03;4932166;29;20579;-83
2021/01/22 04:32:42;;;;;;;17.48;6.50;;;;;;;9.16;61.74;98701.03;4927694;29;20087;-82
2021/01/22 04:35:12;;;;;;;18.55;4.85;;;;;;;9.35;60.88;98711.72;4928375;29;20110;-82
2021/01/22 04:37:39;;;;;;;16.13;3.55;;;;;;;9.23;60.84;98712.56;4927438;29;20046;-82
2021/01/22 04:40:05;;;;;;;15.85;5.15;;;;;;;9.25;60.71;98712.31;4920696;29;20043;-82
2021/01/22 04:42:31;;;;;;;14.50;6.15;;;;;;;9.24;61.22;98716.94;4928025;29;20131;-82
2021/01/22 04:44:56;;;;;;;14.02;5.50;;;;;;;9.13;61.88;98725.94;4932072;29;20130;-82
2021/01/22 04:47:21;;;;;;;13.10;4.80;;;;;;;9.01;62.08;98712.38;4927059;29;20040;-83
2021/01/22 04:49:50;;;;;;;18.95;6.03;;;;;;;9.14;61.53;98720.25;4931596;29;20040;-82
2021/01/22 04:52:17;;;;;;;19.02;6.43;;;;;;;9.17;61.19;98718.94;4929943;29;20032;-83
2021/01/22 04:54:44;;;;;;;18.63;9.55;;;;;;;9.18;61.25;98717.88;4925770;29;20854;-82
2021/01/22 04:57:11;;;;;;;20.20;9.45;;;;;;;9.05;60.77;98719.00;4930288;29;20106;-82
2021/01/22 04:59:44;;;;;;;16.52;7.28;;;;;;;8.92;61.34;98720.06;4925292;29;20032;-81
2021/01/22 05:02:11;;;;;;;19.45;4.90;;;;;;;9.07;60.70;98732.31;4930023;29;21219;-83
2021/01/22 05:04:38;;;;;;;16.02;5.63;;;;;;;8.91;61.00;98729.28;4930021;29;20047;-82
2021/01/22 05:07:04;;;;;;;26.35;10.85;;;;;;;8.80;61.50;98726.56;4926485;29;20035;-82
2021/01/22 05:09:30;;;;;;;17.98;6.43;;;;;;;8.96;61.05;98725.84;4928819;29;20502;-81
2021/01/22 05:11:55;;;;;;;15.30;9.05;;;;;;;8.98;60.84;98722.91;4929612;29;20043;-82
2021/01/22 05:14:21;;;;;;;16.48;10.35;;;;;;;8.90;61.01;98719.47;4930135;29;20498;-82
2021/01/22 05:17:05;;;;;;;16.10;8.43;;;;;;;8.95;61.09;98719.56;4926374;29;20471;-81
2021/01/22 05:19:31;;;;;;;19.75;8.48;;;;;;;8.91;61.44;98723.84;4928586;29;20435;-82
2021/01/22 05:21:58;;;;;;;21.73;7.00;;;;;;;8.62;61.70;98727.50;4908548;29;20130;-81
2021/01/22 05:24:26;;;;;;;22.92;13.10;;;;;;;8.86;61.74;98725.63;4926569;29;20108;-80
2021/01/22 05:27:01;;;;;;;13.27;5.13;;;;;;;8.77;61.67;98719.72;4931261;29;20023;-82
2021/01/22 05:29:27;;;;;;;19.13;7.03;;;;;;;8.72;61.80;98731.28;4927085;29;20036;-81
2021/01/22 05:31:53;;;;;;;18.30;10.20;;;;;;;8.84;61.39;98733.97;4928371;29;20032;-82
2021/01/22 05:34:19;;;;;;;27.63;10.10;;;;;;;8.90;61.53;98734.94;4929527;29;20039;-82
2021/01/22 05:36:47;;;;;;;16.13;7.13;;;;;;;8.69;61.61;98733.63;4929060;29;20513;-79
2021/01/22 05:39:22;;;;;;;17.60;7.97;;;;;;;8.86;61.37;98739.16;4928944;29;20056;-81
2021/01/22 05:41:54;;;;;;;20.35;6.82;;;;;;;8.90;61.20;98737.63;4943938;29;20122;-81
2021/01/22 05:44:22;;;;;;;17.13;6.75;;;;;;;9.02;60.89;98740.31;4926711;29;20091;-81
2021/01/22 05:47:08;;;;;;;18.58;7.85;;;;;;;8.97;61.16;98732.91;4928196;29;20470;-81
2021/01/22 05:49:52;;;;;;;30.90;13.95;;;;;;;8.80;61.73;98737.41;4924050;29;20043;-81
2021/01/22 05:52:22;;;;;;;19.55;12.65;;;;;;;8.97;61.74;98741.03;4928274;29;20032;-81
2021/01/22 05:54:48;;;;;;;27.60;9.48;;;;;;;8.93;61.43;98737.97;4929865;29;20039;-81
2021/01/22 05:57:13;;;;;;;21.02;6.55;;;;;;;8.67;62.26;98743.91;4927738;29;20112;-81
2021/01/22 05:59:39;;;;;;;22.85;7.57;;;;;;;8.92;61.66;98751.78;4942107;29;20036;-81
2021/01/22 06:02:31;;;;;;;15.25;7.85;;;;;;;8.99;60.95;98760.63;4929225;29;20102;-81
2021/01/22 06:05:10;;;;;;;18.35;9.27;;;;;;;8.95;61.44;98757.53;4928257;29;20248;-81
2021/01/22 06:07:37;;;;;;;21.30;8.07;;;;;;;8.98;61.56;98758.13;4927340;29;20035;-81
2021/01/22 06:10:13;;;;;;;19.67;8.75;;;;;;;8.99;61.50;98778.75;4922980;29;20163;-81
2021/01/22 06:12:47;;;;;;;25.75;6.95;;;;;;;8.89;62.18;98774.75;4923525;29;20060;-82
2021/01/22 06:15:15;;;;;;;23.05;8.25;;;;;;;9.09;61.66;98776.28;4928057;29;20020;-81
2021/01/22 06:17:45;;;;;;;23.15;9.98;;;;;;;9.07;61.42;98779.22;4926834;29;20035;-82
2021/01/22 06:20:14;;;;;;;17.58;8.50;;;;;;;9.15;61.09;98783.44;4930592;29;20083;-80
2021/01/22 06:22:46;;;;;;;24.45;9.40;;;;;;;9.22;61.00;98786.88;4927363;29;20046;-81
2021/01/22 06:25:12;;;;;;;26.95;11.98;;;;;;;8.93;61.37;98799.50;4926700;29;20047;-81
2021/01/22 06:27:39;;;;;;;20.17;7.55;;;;;;;8.83;61.36;98804.69;4922237;29;20040;-83
2021/01/22 06:30:08;;;;;;;27.23;10.43;;;;;;;9.12;60.76;98811.84;4926817;29;20041;-81
2021/01/22 06:32:35;;;;;;;19.35;8.35;;;;;;;9.06;60.74;98799.25;4928163;29;20035;-82
2021/01/22 06:35:01;;;;;;;25.52;6.00;;;;;;;9.13;60.58;98813.53;4923563;29;20467;-82
2021/01/22 06:37:27;;;;;;;11.02;8.05;;;;;;;9.04;60.64;98814.13;4925527;29;20048;-82
2021/01/22 06:39:55;;;;;;;13.25;5.95;;;;;;;9.39;59.93;98821.38;4926238;29;20102;-82
2021/01/22 06:42:20;;;;;;;16.13;6.40;;;;;;;9.02;60.55;98824.34;4926623;29;20044;-82
2021/01/22 06:44:46;;;;;;;17.00;5.85;;;;;;;8.96;60.46;98828.88;4926566;29;20107;-82
2021/01/22 06:47:12;;;;;;;13.85;6.53;;;;;;;9.14;60.21;98833.31;4928210;29;20044;-83
2021/01/22 06:49:39;;;;;;;21.50;7.38;;;;;;;9.19;60.10;98830.75;4912651;29;20870;-82
2021/01/22 06:52:12;;;;;;;25.63;7.90;;;;;;;8.84;60.83;98831.56;4929439;29;20095;-82
2021/01/22 06:54:56;;;;;;;18.92;11.80;;;;;;;9.20;60.21;98843.22;4925869;29;20040;-81
2021/01/22 06:57:21;;;;;;;17.48;9.30;;;;;;;9.05;60.10;98849.13;4928135;29;20042;-82
2021/01/22 06:59:47;;;;;;;23.08;7.70;;;;;;;9.20;59.80;98847.81;4927349;29;20043;-82
2021/01/22 07:02:38;;;;;;;15.93;6.05;;;;;;;9.14;59.91;98858.56;4925577;29;20032;-84
2021/01/22 07:05:23;;;;;;;18.48;5.38;;;;;;;9.13;59.93;98856.09;4927938;29;20039;-83
2021/01/22 07:07:49;;;;;;;18.30;11.82;;;;;;;9.18;59.70;98864.34;4924978;29;20130;-84
2021/01/22 07:10:15;;;;;;;22.80;8.68;;;;;;;9.10;60.29;98862.00;4917906;29;20547;-81
2021/01/22 07:12:45;;;;;;;18.60;5.75;;;;;;;9.17;59.95;98873.53;4926631;29;20062;-82
2021/01/22 07:15:20;;;;;;;19.75;7.30;;;;;;;9.20;59.38;98880.38;4926528;29;20435;-81
2021/01/22 07:17:56;;;;;;;18.65;8.50;;;;;;;9.05;58.98;98881.69;4929710;29;20060;-81
2021/01/22 07:20:22;;;;;;;17.35;7.03;;;;;;;9.04;58.44;98890.84;4924510;29;20043;-81
2021/01/22 07:22:55;;;;;;;19.15;7.13;;;;;;;9.19;58.31;98893.13;4928320;29;20048;-82
2021/01/22 07:25:31;;;;;;;23.45;11.15;;;;;;;9.05;59.28;98900.66;4911803;29;20145;-81
2021/01/22 07:28:03;;;;;;;19.20;10.43;;;;;;;9.23;58.37;98896.97;4928328;29;20119;-82
2021/01/22 07:30:40;;;;;;;;;;;;;;;9.20;58.60;98905.59;4928191;29;20037;-82
2021/01/22 07:33:27;;;;;;;20.75;6.43;;;;;;;9.11;59.08;98907.00;4925654;29;19945;-82
2021/01/22 07:36:14;;;;;;;16.02;6.28;;;;;;;9.17;59.13;98906.06;4927779;29;20440;-82
2021/01/22 07:38:41;;;;;;;17.80;5.78;;;;;;;9.32;58.73;98914.56;4927436;29;20052;-82
2021/01/22 07:41:08;;;;;;;18.33;10.30;;;;;;;9.25;58.66;98913.88;4926546;29;20130;-83
2021/01/22 07:43:34;;;;;;;20.92;6.15;;;;;;;9.12;58.75;98914.09;4922571;29;20031;-82
2021/01/22 07:46:10;;;;;;;20.65;6.38;;;;;;;9.01;59.41;98920.34;4923441;29;20043;-83
2021/01/22 07:48:37;;;;;;;21.20;8.77;;;;;;;9.08;59.19;98921.88;4909690;29;20044;-83
2021/01/22 07:51:30;;;;;;;19.70;10.18;;;;;;;9.09;59.31;98930.81;4926164;29;20509;-81
2021/01/22 07:53:59;;;;;;;24.70;7.30;;;;;;;8.98;59.63;98929.75;4924830;29;20074;-82
2021/01/22 07:56:41;;;;;;;15.25;7.47;;;;;;;9.02;59.70;98932.81;4928599;29;20454;-82
2021/01/22 07:59:08;;;;;;;17.30;9.00;;;;;;;9.09;59.48;98930.81;4926709;29;20098;-81
2021/01/22 08:01:34;;;;;;;24.02;7.75;;;;;;;8.96;59.70;98943.53;4928231;29;20491;-83
2021/01/22 08:03:59;;;;;;;23.58;11.40;;;;;;;8.85;59.68;98933.50;4940178;29;20038;-82
2021/01/22 08:06:25;;;;;;;13.38;10.90;;;;;;;8.90;59.32;98944.47;4928778;29;20640;-82
2021/01/22 08:09:07;;;;;;;22.13;9.80;;;;;;;9.12;58.95;98944.72;4930739;29;20173;-81
2021/01/22 08:11:32;;;;;;;22.17;9.32;;;;;;;9.14;59.25;98944.50;4927873;29;20046;-81
2021/01/22 08:13:58;;;;;;;27.40;10.55;;;;;;;9.15;59.68;98954.31;4927223;29;20044;-81
2021/01/22 08:16:24;;;;;;;17.75;8.55;;;;;;;9.18;59.43;98950.31;4926567;29;20545;-81
2021/01/22 08:18:50;;;;;;;17.80;12.80;;;;;;;9.23;59.50;98963.97;4929532;29;20087;-81
2021/01/22 08:21:16;;;;;;;18.10;7.57;;;;;;;9.04;59.92;98949.69;4929255;29;20285;-81
2021/01/22 08:23:46;;;;;;;14.07;8.98;;;;;;;9.11;59.64;98953.94;4930403;28;20119;-82
2021/01/22 08:26:12;;;;;;;24.45;7.57;;;;;;;9.31;59.42;98948.19;4927535;29;20035;-82
2021/01/22 08:28:41;;;;;;;15.80;6.32;;;;;;;9.13;59.86;98948.28;4927358;29;20407;-82
2021/01/22 08:31:13;;;;;;;21.20;9.60;;;;;;;9.45;59.15;98951.50;4926588;29;20032;-81
2021/01/22 08:33:39;;;;;;;25.15;9.90;;;;;;;9.41;59.22;98960.34;4926837;29;20058;-81
2021/01/22 08:36:08;;;;;;;25.92;7.75;;;;;;;9.74;58.65;98956.19;4926887;29;20040;-81
2021/01/22 08:38:36;;;;;;;16.80;10.07;;;;;;;10.09;56.90;98952.59;4929239;29;20577;-82
2021/01/22 08:41:02;;;;;;;21.63;8.77;;;;;;;10.46;56.36;98965.88;4911170;29;20359;-80
2021/01/22 08:43:27;;;;;;;25.25;9.85;;;;;;;11.00;55.14;98971.75;4926700;29;20663;-82
2021/01/22 08:46:07;;;;;;;17.80;8.05;;;;;;;11.18;53.59;98980.72;4928285;29;20043;-82
2021/01/22 08:48:33;;;;;;;18.05;7.75;;;;;;;11.56;53.13;98987.34;4927548;29;20118;-80
2021/01/22 08:51:02;;;;;;;22.30;6.45;;;;;;;12.12;51.62;99001.75;4926978;29;20111;-82
2021/01/22 08:53:27;;;;;;;22.02;6.75;;;;;;;12.57;50.39;98999.84;4925853;29;20039;-82
2021/01/22 08:56:12;;;;;;;17.27;5.63;;;;;;;12.80;49.11;99006.13;4926206;29;20059;-83
2021/01/22 08:59:17;;;;;;;14.95;4.03;;;;;;;12.89;48.63;99005.38;4925321;29;20911;-82
2021/01/22 09:01:49;;;;;;;15.40;4.72;;;;;;;13.68;47.27;99008.56;4852452;29;20032;-82
2021/01/22 09:04:19;;;;;;;14.30;3.40;;;;;;;14.11;46.69;99011.28;4858682;29;20048;-83
2021/01/22 09:06:55;;;;;;;18.45;4.80;;;;;;;13.83;45.72;99010.59;4893155;29;20122;-82
2021/01/22 09:09:51;;;;;;;14.20;3.97;;;;;;;14.38;44.28;99008.44;4927389;29;20062;-82
2021/01/22 09:12:26;;;;;;;22.33;5.75;;;;;;;14.71;43.67;99013.78;4919913;29;20039;-86
2021/01/22 09:14:59;;;;;;;19.10;4.95;;;;;;;14.18;45.56;99022.81;4926826;29;20031;-82
2021/01/22 09:17:28;;;;;;;11.45;3.55;;;;;;;14.35;44.93;99027.25;4927551;29;20031;-83
2021/01/22 09:19:59;;;;;;;14.57;3.67;;;;;;;13.77;45.46;99030.75;4928500;29;20084;-82
2021/01/22 09:22:32;;;;;;;9.95;4.32;;;;;;;13.30;46.33;99025.97;4927405;29;20504;-83
2021/01/22 09:25:00;;;;;;;12.38;3.67;;;;;;;12.43;48.73;99044.97;4928024;29;20043;-82
2021/01/22 09:27:26;;;;;;;19.70;5.78;;;;;;;12.29;48.79;99045.31;4926661;29;20448;-82
2021/01/22 09:29:52;;;;;;;12.70;3.92;;;;;;;11.95;49.86;99050.03;4925698;29;20494;-82
2021/01/22 09:32:17;;;;;;;14.45;6.80;;;;;;;11.50;50.99;99049.03;4923944;29;20856;-82
2021/01/22 09:34:43;;;;;;;20.65;4.85;;;;;;;11.28;51.70;99055.19;4927296;29;20038;-82
2021/01/22 09:37:08;;;;;;;12.70;4.65;;;;;;;11.17;52.18;99049.81;4924283;29;20039;-82
2021/01/22 09:39:34;;;;;;;19.67;5.40;;;;;;;10.87;53.15;99062.59;4923037;29;20059;-81
2021/01/22 09:41:59;;;;;;;15.10;3.92;;;;;;;10.93;53.44;99068.97;4924970;29;20114;-82
2021/01/22 09:44:25;;;;;;;17.30;4.70;;;;;;;10.61;53.96;99071.31;4925217;29;20067;-83
2021/01/22 09:46:50;;;;;;;14.25;7.50;;;;;;;10.74;53.52;99080.03;4926293;29;20394;-82
2021/01/22 09:49:16;;;;;;;13.70;6.97;;;;;;;10.73;53.44;99080.28;4923884;29;20067;-82
2021/01/22 09:51:41;;;;;;;20.92;9.48;;;;;;;11.20;52.70;99080.09;4926950;29;20042;-82
2021/01/22 09:54:07;;;;;;;21.30;6.75;;;;;;;10.93;52.79;99080.66;4927152;29;20462;-82
2021/01/22 09:56:32;;;;;;;16.45;5.72;;;;;;;11.11;52.47;99087.81;4926542;29;20051;-82
2021/01/22 09:58:58;;;;;;;16.15;6.35;;;;;;;11.58;52.31;99085.91;4925146;29;20040;-81
2021/01/22 10:01:23;;;;;;;23.10;8.52;;;;;;;11.82;51.64;99100.22;4922256;29;20047;-82
2021/01/22 10:03:48;;;;;;;18.33;6.43;;;;;;;11.97;51.28;99095.03;4923889;29;20466;-82
2021/01/22 10:06:14;;;;;;;17.80;5.15;;;;;;;12.33;50.32;99100.19;4928484;29;20035;-82
2021/01/22 10:08:40;;;;;;;14.80;5.18;;;;;;;12.71;48.07;99098.47;4925808;29;20039;-82
2021/01/22 10:11:05;;;;;;;20.63;7.80;;;;;;;13.75;47.28;99103.97;4926951;29;20517;-82
2021/01/22 10:13:31;;;;;;;16.92;5.55;;;;;;;14.46;45.61;99111.03;4924226;29;20059;-82
2021/01/22 10:15:57;;;;;;;20.23;4.15;;;;;;;14.77;43.82;99116.69;4923575;28;20478;-82
2021/01/22 10:18:23;;;;;;;20.52;4.45;;;;;;;14.79;43.15;99109.03;4925089;29;20042;-83
2021/01/22 10:20:51;;;;;;;18.20;5.50;;;;;;;14.10;44.89;99116.25;4925592;29;20038;-82
2021/01/22 10:23:17;;;;;;;16.40;5.03;;;;;;;14.34;43.81;99119.44;4922031;29;20079;-81
2021/01/22 10:25:44;;;;;;;18.50;4.07;;;;;;;14.75;44.16;99121.59;4923668;29;20058;-83
2021/01/22 10:28:10;;;;;;;17.65;4.60;;;;;;;14.72;43.50;99114.75;4926669;29;20490;-81
2021/01/22 10:30:35;;;;;;;14.98;4.20;;;;;;;15.14;43.92;99129.41;4925053;29;20036;-83
2021/01/22 10:33:00;;;;;;;16.10;4.47;;;;;;;15.27;43.81;99120.69;4925056;29;20058;-83
2021/01/22 10:35:26;;;;;;;13.70;4.22;;;;;;;14.99;43.23;99125.53;4924968;29;20031;-82
2021/01/22 10:37:51;;;;;;;18.27;4.82;;;;;;;15.37;42.77;99133.59;4922820;29;20126;-83
2021/01/22 10:40:17;;;;;;;14.93;4.10;;;;;;;14.70;43.63;99129.78;4923532;29;20052;-83
2021/01/22 10:42:42;;;;;;;10.32;3.70;;;;;;;14.24;44.74;99142.06;4920818;29;20094;-84
2021/01/22 10:45:08;;;;;;;11.15;3.92;;;;;;;14.05;44.50;99138.09;4940211;29;20134;-82
2021/01/22 10:47:34;;;;;;;14.77;5.57;;;;;;;13.70;45.41;99142.16;4924058;29;20043;-79
2021/01/22 10:49:59;;;;;;;14.98;4.72;;;;;;;13.75;45.68;99151.25;4926410;29;20039;-81
2021/01/22 10:52:25;;;;;;;14.30;4.03;;;;;;;12.68;47.50;99148.09;4923874;29;20040;-83
2021/01/22 10:54:50;;;;;;;20.02;5.65;;;;;;;12.57;48.57;99140.84;4923291;29;20047;-81
2021/01/22 10:57:15;;;;;;;15.45;4.25;;;;;;;13.05;48.41;99152.91;4924918;29;20091;-81
2021/01/22 10:59:41;;;;;;;11.75;4.60;;;;;;;12.74;48.38;99140.81;4939337;29;20123;-82
2021/01/22 11:02:09;;;;;;;14.93;4.65;;;;;;;12.11;49.03;99152.72;4918963;29;20036;-82
2021/01/22 11:04:35;;;;;;;13.30;3.95;;;;;;;12.03;49.45;99155.84;4924148;29;20038;-83
2021/01/22 11:07:03;;;;;;;17.02;5.68;;;;;;;11.61;49.73;99148.03;4922990;29;20439;-84
2021/01/22 11:09:29;;;;;;;13.65;6.07;;;;;;;11.73;49.28;99165.13;4926375;29;20031;-82
2021/01/22 11:11:55;;;;;;;14.88;5.20;;;;;;;11.79;49.59;99147.81;4921282;29;20036;-82
2021/01/22 11:14:20;;;;;;;14.18;7.20;;;;;;;11.54;49.62;99161.81;4940417;28;20506;-81
2021/01/22 11:16:45;;;;;;;15.25;4.60;;;;;;;11.46;50.16;99163.03;4919190;29;20036;-82
2021/01/22 11:19:11;;;;;;;20.15;7.35;;;;;;;11.76;50.21;99163.84;4923048;29;20036;-82
2021/01/22 11:21:36;;;;;;;15.77;5.47;;;;;;;12.10;49.69;99172.88;4937275;29;20079;-83
2021/01/22 11:24:03;;;;;;;15.65;4.30;;;;;;;12.22;49.17;99161.91;4921984;29;20044;-82
2021/01/22 11:26:29;;;;;;;15.57;5.28;;;;;;;11.99;49.47;99169.16;4924989;29;20071;-83
2021/01/22 11:28:54;;;;;;;14.45;4.90;;;;;;;12.10;49.75;99170.16;4928578;29;20118;-82
2021/01/22 11:31:19;;;;;;;17.65;4.45;;;;;;;12.35;49.82;99180.63;4927096;29;20024;-82
2021/01/22 11:33:45;;;;;;;16.92;3.92;;;;;;;12.27;49.75;99185.69;4926428;29;20624;-82
2021/01/22 11:36:11;;;;;;;18.90;5.72;;;;;;;12.34;49.06;99195.34;4927622;29;20032;-82